Startpagina
METAR-TAF:

METAR-TAF

Vliegvelden :

Vigo, Spanje

breedte: 42-13N, lengte: 008-38W, hoogte: 264 m

Actueel weer

Dit bericht is 32 minuten geleden gemaakt, om 13:00 UTC
Wind 5 kt uit het zuidzuidwesten, variërend tussen het zuiden en het westzuidwesten
Temperatuur 9°C
Vochtigheid 71%
Druk 1017 hPa
Zicht 10 km of meer
Verspreide wolken op 5000 ft

METAR: LEVX 231300Z 21005KT 190V250 9999 SCT050 09/04 Q1017 NOSIG

Tijdstip: 14:32 (13:32 UTC)

Verwachting

Dit bericht is 2 uur en het 0 minuten geleden gemaakt, om 11:32 UTC
Verwachting geldig van 23 om 12 UTC tot 24 om 12 UTC
Wind 9 kt uit het zuidzuidwesten
Zicht 10 km of meer
Gebroken wolken op 3000 ft
Kans 30% :
Tijdelijke
van 23 om 21 UTC tot 23 om 24 UTC
Zicht: 3000 m
lichte regen

TAF: LEVX 231132Z 2312/2412 20009KT 9999 BKN030 TX13/2314Z TN05/2406Z PROB30 TEMPO 2321/2324 3000 -RA

Waarnemingen en weersverwachtingen van meer dan 4000 vliegvelden (METAR en TAF).

De beschikbare stations zijn de gele en rode punten op de kaart.

Ga met uw muis naar het station om de naam te zien.

Klik dan om waarnemingen en weersverwachtingen te zien.

kaart wijzigen: klik op de groene knoppen met een zwart kruis om in te zoomen, op de groene knop met een streepje om uit te zoomen of op de groene pijlen voor aangrenzende kaarten.


METAR-TAF: